Unionville, Louisiana
Current Conditions -  °F | °C
As of 10:15 PM on Sunday 23 Nov 2014 (Local Time) from KRSN Reporting Station
Clear Clear  
Wind Chill: 63°   Ceiling: Unl
Heat Index: 63°   Visibility: 10mi
Dew Point: 58°   Wind: 9mph
Humidity: 84%   Direction: 220°SW
Pressure: 29.62"   Gusts: NA
Location:  32.6988°N, 92.6981°W
Report Text: KRSN 240415Z AUTO 22008KT 10SM CLR 17/15 A2962 RMK AO2 P0001 T01730146
Loading
Personal Weather Stations






























Interactive Weather Map New forecast layout! Learn more

10-Day Weather Forecast

Advertisements
Track Severe Weather on mobile